Time;durP1;ratioP1;P1;durP2;ratioP2;P2;SDS_P1;SDS_P2;PMS_P1;PMS_P2;Temp;Humidity;BMP_temperature;BMP_pressure;BME280_temperature;BME280_humidity;BME280_pressure;Samples;Min_cycle;Max_cycle;Signal;HPM_P1;HPM_P2
2022/08/02 00:01:32;;;;;;;1.95;0.93;;;;;;;23.94;39.42;101809.28;5071260;28;20257;-66
2022/08/02 00:03:57;;;;;;;2.50;1.10;;;;;;;23.94;39.57;101811.97;5071676;28;20028;-66
2022/08/02 00:06:23;;;;;;;2.23;0.93;;;;;;;23.93;39.07;101818.28;5072028;28;20028;-66
2022/08/02 00:08:48;;;;;;;3.03;1.00;;;;;;;23.90;39.49;101812.22;5071500;28;20273;-66
2022/08/02 00:11:13;;;;;;;2.17;1.10;;;;;;;23.90;39.02;101811.41;5071850;28;20035;-66
2022/08/02 00:13:39;;;;;;;2.17;1.00;;;;;;;23.90;39.29;101803.41;5072147;28;20028;-66
2022/08/02 00:16:04;;;;;;;2.92;0.82;;;;;;;23.89;39.51;101801.72;5070757;28;20093;-66
2022/08/02 00:18:30;;;;;;;3.00;0.90;;;;;;;23.88;39.17;101792.91;5071910;28;20017;-66
2022/08/02 00:20:55;;;;;;;2.13;0.90;;;;;;;23.89;39.37;101807.06;5071583;28;20020;-66
2022/08/02 00:23:20;;;;;;;3.73;1.13;;;;;;;23.87;39.28;101809.84;5071130;28;20040;-66
2022/08/02 00:25:46;;;;;;;2.22;0.90;;;;;;;23.86;39.05;101810.84;5075007;28;20676;-66
2022/08/02 00:28:11;;;;;;;2.63;1.00;;;;;;;23.85;39.25;101811.00;5075068;28;20517;-66
2022/08/02 00:30:37;;;;;;;2.78;0.98;;;;;;;23.85;38.86;101811.81;5074677;28;20029;-66
2022/08/02 00:33:04;;;;;;;1.77;0.88;;;;;;;23.85;38.92;101824.31;5075136;28;20023;-66
2022/08/02 00:35:30;;;;;;;2.55;0.80;;;;;;;23.83;38.64;101819.13;5075253;28;20484;-66
2022/08/02 00:37:55;;;;;;;2.65;1.10;;;;;;;23.82;38.63;101821.88;5074299;28;20035;-66
2022/08/02 00:40:22;;;;;;;2.80;0.93;;;;;;;23.82;39.19;101814.72;5075304;28;20063;-66
2022/08/02 00:43:06;;;;;;;2.67;0.90;;;;;;;23.84;38.66;101809.28;5075200;28;20288;-66
2022/08/02 00:45:41;;;;;;;3.97;1.10;;;;;;;23.81;38.74;101807.72;5074449;28;20024;-66
2022/08/02 00:48:08;;;;;;;2.45;1.00;;;;;;;23.81;38.33;101814.88;5075022;28;20039;-66
2022/08/02 00:50:34;;;;;;;3.25;1.20;;;;;;;23.81;38.93;101812.19;5074420;28;20035;-66
2022/08/02 00:53:00;;;;;;;2.95;1.00;;;;;;;23.82;38.95;101806.75;5074609;28;20372;-66
2022/08/02 00:55:26;;;;;;;3.50;1.17;;;;;;;23.80;38.78;101797.19;5075125;28;20025;-66
2022/08/02 00:57:52;;;;;;;3.13;1.15;;;;;;;23.79;38.46;101792.88;5074301;28;20025;-66
2022/08/02 01:00:18;;;;;;;4.00;1.00;;;;;;;23.80;38.46;101787.41;5073685;28;20035;-66
2022/08/02 01:02:44;;;;;;;2.67;1.08;;;;;;;23.80;38.43;101781.22;5074929;28;20039;-66
2022/08/02 01:05:10;;;;;;;3.95;1.20;;;;;;;23.78;38.77;101781.38;5073849;28;20364;-66
2022/08/02 01:07:35;;;;;;;2.38;1.02;;;;;;;23.79;38.56;101779.56;5074945;28;20031;-66
2022/08/02 01:10:01;;;;;;;2.10;0.90;;;;;;;23.79;38.71;101779.56;5074359;28;20013;-66
2022/08/02 01:12:26;;;;;;;3.05;0.85;;;;;;;23.78;38.40;101776.03;5073956;28;20028;-66
2022/08/02 01:14:54;;;;;;;2.38;0.90;;;;;;;23.77;38.40;101779.72;5074549;28;20020;-66
2022/08/02 01:17:53;;;;;;;3.65;0.90;;;;;;;23.78;38.30;101786.69;5074112;28;20044;-66
2022/08/02 01:20:56;;;;;;;2.42;1.00;;;;;;;23.76;38.29;101780.69;5073457;28;20028;-67
2022/08/02 01:23:32;;;;;;;1.92;0.85;;;;;;;23.76;38.42;101786.00;5074337;28;20040;-66
2022/08/02 01:25:57;;;;;;;2.45;1.00;;;;;;;23.76;38.38;101788.66;5073489;28;20016;-66
2022/08/02 01:28:34;;;;;;;2.60;1.00;;;;;;;23.77;38.51;101786.88;5074520;28;20025;-66
2022/08/02 01:31:23;;;;;;;3.15;1.13;;;;;;;23.76;38.31;101787.84;5074068;28;20348;-67
2022/08/02 01:34:12;;;;;;;2.47;1.00;;;;;;;23.77;38.57;101785.03;5072764;28;20041;-66
2022/08/02 01:36:42;;;;;;;3.17;1.10;;;;;;;23.75;38.39;101787.00;5074218;28;20021;-66
2022/08/02 01:39:16;;;;;;;2.65;1.05;;;;;;;23.75;38.57;101780.81;5073762;28;20029;-66
2022/08/02 01:41:43;;;;;;;3.03;1.02;;;;;;;23.75;38.67;101780.81;5073420;28;20032;-66
2022/08/02 01:44:12;;;;;;;3.45;1.17;;;;;;;23.73;38.59;101779.16;5073618;28;20020;-66
2022/08/02 01:46:40;;;;;;;3.15;1.20;;;;;;;23.74;38.33;101777.31;5073439;28;20082;-66
2022/08/02 01:49:08;;;;;;;2.75;1.05;;;;;;;23.72;38.81;101777.47;5073779;28;20025;-66
2022/08/02 01:54:23;;;;;;;3.13;1.20;;;;;;;23.73;39.06;101770.31;5072889;28;20028;-67
2022/08/02 01:56:50;;;;;;;3.33;0.93;;;;;;;23.72;38.68;101764.16;5073961;28;20017;-67
2022/08/02 01:59:19;;;;;;;2.72;0.98;;;;;;;23.72;38.67;101763.31;5073661;28;20280;-67
2022/08/02 02:01:47;;;;;;;2.10;1.00;;;;;;;23.72;38.72;101756.19;5072930;28;20029;-66
2022/08/02 02:04:14;;;;;;;2.60;1.08;;;;;;;23.72;38.81;101752.69;5073379;28;20032;-66
2022/08/02 02:06:42;;;;;;;3.28;1.23;;;;;;;23.72;38.90;101760.66;5073669;28;20028;-66
2022/08/02 02:09:08;;;;;;;3.58;1.10;;;;;;;23.73;38.90;101762.31;5072349;28;20028;-67
2022/08/02 02:11:34;;;;;;;2.92;1.10;;;;;;;23.72;39.45;101744.69;5073865;28;20423;-67
2022/08/02 02:14:01;;;;;;;2.97;1.20;;;;;;;23.71;39.38;101746.50;5073410;28;20021;-67
2022/08/02 02:16:27;;;;;;;2.83;1.02;;;;;;;23.72;39.05;101739.38;5072466;28;20078;-66
2022/08/02 02:18:58;;;;;;;3.38;1.00;;;;;;;23.73;39.69;101735.72;5073537;28;20052;-67
2022/08/02 02:21:24;;;;;;;2.50;0.90;;;;;;;23.72;39.62;101731.41;5073228;28;20051;-66
2022/08/02 02:23:49;;;;;;;2.80;0.95;;;;;;;23.72;38.94;101731.41;5072555;28;20533;-66
2022/08/02 02:26:16;;;;;;;3.55;1.10;;;;;;;23.69;39.12;101719.19;5073132;28;20033;-66
2022/08/02 02:28:45;;;;;;;2.75;1.00;;;;;;;23.71;39.38;101724.38;5073339;28;20115;-66
2022/08/02 02:31:12;;;;;;;3.10;1.00;;;;;;;23.69;39.43;101721.03;5072319;28;20021;-66
2022/08/02 02:33:43;;;;;;;3.42;1.17;;;;;;;23.67;39.78;101718.50;5071909;28;20154;-66
2022/08/02 02:36:09;;;;;;;2.58;1.00;;;;;;;23.67;39.59;101728.28;5072019;28;20567;-66
2022/08/02 02:38:35;;;;;;;2.65;1.00;;;;;;;23.66;39.42;101719.47;5072998;28;20028;-67
2022/08/02 02:41:03;;;;;;;3.45;1.10;;;;;;;23.66;39.62;101729.28;5072854;28;20024;-67
2022/08/02 02:43:31;;;;;;;4.43;1.23;;;;;;;23.65;39.24;101724.94;5072291;28;20024;-67
2022/08/02 02:45:57;;;;;;;3.80;1.10;;;;;;;23.64;39.49;101726.75;5072810;28;20077;-66
2022/08/02 02:48:25;;;;;;;2.42;1.08;;;;;;;23.63;39.62;101732.22;5072493;28;20116;-67
2022/08/02 02:50:51;;;;;;;2.92;1.08;;;;;;;23.60;39.75;101724.53;5072131;28;20025;-66
2022/08/02 02:53:18;;;;;;;1.98;0.90;;;;;;;23.58;39.46;101723.84;5072821;28;20052;-66
2022/08/02 02:55:45;;;;;;;3.25;1.10;;;;;;;23.61;39.96;101728.88;5073206;28;20021;-67
2022/08/02 02:58:12;;;;;;;3.03;1.15;;;;;;;23.60;40.06;101729.84;5071981;28;20027;-67
2022/08/02 03:03:23;;;;;;;2.97;0.93;;;;;;;23.57;39.83;101730.94;5072989;28;20038;-65
2022/08/02 03:05:48;;;;;;;2.35;0.98;;;;;;;23.54;40.17;101726.78;5072228;28;20024;-67
2022/08/02 03:08:16;;;;;;;2.67;1.00;;;;;;;23.53;40.31;101719.75;5072562;28;20024;-67
2022/08/02 03:10:45;;;;;;;3.75;1.00;;;;;;;23.53;40.16;101714.44;5072733;28;20044;-66
2022/08/02 03:13:15;;;;;;;5.43;1.38;;;;;;;23.52;40.12;101714.56;5071737;28;20035;-66
2022/08/02 03:15:41;;;;;;;3.30;1.10;;;;;;;23.51;40.11;101712.88;5072432;28;20075;-66
2022/08/02 03:18:07;;;;;;;3.05;1.10;;;;;;;23.51;40.07;101715.53;5071720;28;20025;-66
2022/08/02 03:20:33;;;;;;;2.92;1.10;;;;;;;23.50;40.32;101716.53;5072879;28;20025;-65
2022/08/02 03:22:58;;;;;;;2.83;1.10;;;;;;;23.50;39.93;101713.88;5072266;28;20063;-66
2022/08/02 03:25:23;;;;;;;3.58;1.10;;;;;;;23.50;40.12;101719.19;5071886;28;20060;-66
2022/08/02 03:27:49;;;;;;;3.67;1.65;;;;;;;23.48;40.26;101715.81;5072660;28;20423;-66
2022/08/02 03:30:14;;;;;;;3.53;1.30;;;;;;;23.47;40.19;101719.47;5072220;28;20528;-66
2022/08/02 03:32:42;;;;;;;3.88;1.23;;;;;;;23.47;40.38;101728.28;5071908;28;20032;-66
2022/08/02 03:35:10;;;;;;;2.85;1.25;;;;;;;23.46;40.49;101728.44;5073081;28;20357;-66
2022/08/02 03:37:36;;;;;;;2.60;1.17;;;;;;;23.45;40.19;101721.41;5072163;28;20426;-66
2022/08/02 03:40:05;;;;;;;2.47;1.02;;;;;;;23.43;40.31;101713.59;5071359;28;20028;-66
2022/08/02 03:42:30;;;;;;;5.82;1.30;;;;;;;23.44;40.62;101711.78;5072206;28;20101;-66
2022/08/02 03:44:57;;;;;;;2.42;0.90;;;;;;;23.43;40.63;101705.63;5071994;28;20070;-66
2022/08/02 03:47:23;;;;;;;2.42;1.00;;;;;;;23.42;40.62;101701.28;5071786;28;20028;-66
2022/08/02 03:49:50;;;;;;;3.63;1.13;;;;;;;23.42;40.42;101703.94;5072403;28;20027;-66
2022/08/02 03:52:16;;;;;;;2.20;0.98;;;;;;;23.42;40.43;101695.13;5072061;28;20052;-66
2022/08/02 03:54:41;;;;;;;2.72;1.20;;;;;;;23.41;40.53;101704.91;5071425;28;20424;-66
2022/08/02 03:57:06;;;;;;;2.50;1.20;;;;;;;23.40;40.87;101695.25;5071967;28;20104;-66
2022/08/02 03:59:40;;;;;;;3.15;1.13;;;;;;;23.39;40.49;101701.56;5073262;28;20738;-66
2022/08/02 04:02:06;;;;;;;;;;;;;;;23.40;40.74;101697.06;5075497;28;20029;-66
2022/08/02 04:04:31;;;;;;;2.53;1.10;;;;;;;23.39;40.54;101696.22;5075968;28;20334;-66
2022/08/02 04:06:56;;;;;;;2.90;1.17;;;;;;;23.40;40.89;101694.41;5075679;28;20024;-66
2022/08/02 04:09:21;;;;;;;3.20;1.00;;;;;;;23.39;40.59;101680.28;5075165;28;20281;-66
2022/08/02 04:11:46;;;;;;;2.90;1.10;;;;;;;23.39;41.01;101676.78;5075799;28;20277;-66
2022/08/02 04:14:12;;;;;;;2.23;1.20;;;;;;;23.38;41.14;101675.91;5075456;28;20032;-66
2022/08/02 04:16:42;;;;;;;2.58;1.10;;;;;;;23.38;41.22;101683.91;5074836;28;20338;-66
2022/08/02 04:19:10;;;;;;;3.00;1.20;;;;;;;23.37;40.91;101679.59;5075623;28;20060;-66
2022/08/02 04:21:39;;;;;;;3.55;1.20;;;;;;;23.35;41.15;101679.72;5074853;28;20024;-68
2022/08/02 04:24:07;;;;;;;3.72;1.30;;;;;;;23.37;41.10;101679.59;5075481;28;20107;-66
2022/08/02 04:26:33;;;;;;;3.95;1.42;;;;;;;23.37;41.17;101687.56;5075570;28;20028;-67
2022/08/02 04:29:00;;;;;;;2.65;1.15;;;;;;;23.36;41.37;101684.03;5074644;28;20108;-66
2022/08/02 04:31:26;;;;;;;3.22;1.30;;;;;;;23.36;41.21;101678.72;5075639;28;20594;-66
2022/08/02 04:33:51;;;;;;;3.60;1.40;;;;;;;23.36;41.29;101681.38;5075859;28;20033;-66
2022/08/02 04:36:17;;;;;;;2.67;1.20;;;;;;;23.36;41.63;101680.56;5074512;28;20039;-66
2022/08/02 04:38:42;;;;;;;3.53;1.40;;;;;;;23.37;41.42;101695.53;5075478;28;20020;-66
2022/08/02 04:41:08;;;;;;;3.28;1.30;;;;;;;23.36;41.40;101694.69;5075229;28;20448;-66
2022/08/02 04:43:33;;;;;;;4.15;1.42;;;;;;;23.38;41.13;101699.03;5074764;28;20033;-66
2022/08/02 04:46:01;;;;;;;4.60;1.60;;;;;;;23.36;41.34;101689.34;5075235;28;20415;-66
2022/08/02 04:48:27;;;;;;;2.92;1.25;;;;;;;23.38;41.30;101688.38;5075884;28;20074;-67
2022/08/02 04:50:52;;;;;;;3.17;1.33;;;;;;;23.36;41.39;101686.69;5074373;28;20024;-66
2022/08/02 04:53:18;;;;;;;3.80;1.10;;;;;;;23.36;41.95;101688.53;5074703;28;20024;-67
2022/08/02 04:55:58;;;;;;;2.80;1.13;;;;;;;23.35;41.73;101678.84;5074818;28;20305;-66
2022/08/02 04:58:24;;;;;;;2.78;1.27;;;;;;;23.36;41.80;101683.22;5074306;28;20016;-67
2022/08/02 05:00:49;;;;;;;4.18;1.60;;;;;;;23.35;41.87;101678.84;5074922;28;20024;-66
2022/08/02 05:03:20;;;;;;;2.67;1.30;;;;;;;23.36;42.17;101681.38;5074532;28;20459;-67
2022/08/02 05:05:48;;;;;;;3.58;1.38;;;;;;;23.35;42.19;101677.06;5074278;28;20261;-66
2022/08/02 05:08:19;;;;;;;4.00;1.40;;;;;;;23.36;42.07;101676.06;5074370;28;20059;-66
2022/08/02 05:10:44;;;;;;;2.97;1.17;;;;;;;23.37;42.25;101676.91;5073466;28;20036;-66
2022/08/02 05:13:10;;;;;;;4.33;1.40;;;;;;;23.37;42.50;101687.56;5074422;28;20032;-66
2022/08/02 05:15:37;;;;;;;3.60;1.40;;;;;;;23.36;42.52;101678.72;5074528;28;20836;-66
2022/08/02 05:18:09;;;;;;;4.50;1.60;;;;;;;23.39;42.31;101679.44;5073549;28;20297;-66
2022/08/02 05:20:34;;;;;;;3.85;1.52;;;;;;;23.38;42.91;101680.41;5074585;28;20028;-66
2022/08/02 05:22:59;;;;;;;3.15;1.40;;;;;;;23.40;42.87;101670.47;5073999;28;20032;-66
2022/08/02 05:25:25;;;;;;;3.63;1.60;;;;;;;23.41;42.61;101675.66;5073507;28;20032;-66
2022/08/02 05:27:50;;;;;;;4.72;1.60;;;;;;;23.43;42.67;101672.84;5074274;28;20071;-67
2022/08/02 05:30:15;;;;;;;5.50;2.75;;;;;;;23.34;43.32;101670.03;5074063;28;20070;-66
2022/08/02 05:32:46;;;;;;;7.50;3.30;;;;;;;22.99;44.98;101663.41;5073574;28;20101;-66
2022/08/02 05:35:11;;;;;;;7.28;3.55;;;;;;;22.61;46.07;101658.84;5073928;28;20020;-66
2022/08/02 05:37:36;;;;;;;7.63;3.00;;;;;;;22.27;46.57;101656.41;5074202;28;20078;-65
2022/08/02 05:40:06;;;;;;;7.63;3.47;;;;;;;22.01;47.84;101666.63;5073205;28;20021;-66
2022/08/02 05:42:31;;;;;;;9.20;3.42;;;;;;;21.82;48.79;101675.28;5074022;28;20296;-66
2022/08/02 05:44:57;;;;;;;9.70;3.50;;;;;;;21.66;49.57;101662.47;5073697;28;20024;-65
2022/08/02 05:47:23;;;;;;;8.25;3.45;;;;;;;21.55;50.13;101661.56;5073064;28;20376;-65
2022/08/02 05:49:48;;;;;;;7.78;3.60;;;;;;;21.45;50.33;101673.84;5073905;28;20035;-73
2022/08/02 05:52:17;;;;;;;4.70;2.90;;;;;;;21.30;50.97;101673.31;5074277;28;20478;-70
2022/08/02 05:55:08;;;;;;;7.75;3.58;;;;;;;21.23;51.38;101674.78;5074179;28;20070;-73
2022/08/02 05:58:01;;;;;;;5.82;3.72;;;;;;;21.20;51.86;101678.53;5073814;28;20546;-71
2022/08/02 06:00:30;;;;;;;8.00;3.80;;;;;;;21.23;52.11;101680.09;5072969;28;20028;-73
2022/08/02 06:03:17;;;;;;;5.50;3.67;;;;;;;21.27;52.29;101685.97;5073751;28;20056;-74
2022/08/02 06:06:10;;;;;;;6.38;3.80;;;;;;;21.30;52.49;101685.72;5073621;28;20495;-74
2022/08/02 06:08:42;;;;;;;7.15;3.45;;;;;;;21.35;52.10;101694.16;5060506;28;20040;-73
2022/08/02 06:11:11;;;;;;;5.80;3.70;;;;;;;21.41;52.11;101693.63;5073327;28;20028;-71
2022/08/02 06:13:37;;;;;;;7.47;3.47;;;;;;;21.47;52.15;101695.78;5073512;28;20051;-74
2022/08/02 06:16:04;;;;;;;5.28;2.90;;;;;;;21.60;52.06;101708.06;5072071;28;20444;-74
2022/08/02 06:18:32;;;;;;;4.10;2.17;;;;;;;21.80;51.48;101695.81;5073284;28;20031;-64
2022/08/02 06:21:01;;;;;;;6.75;2.53;;;;;;;22.01;50.70;101690.50;5072264;28;20035;-73
2022/08/02 06:23:27;;;;;;;4.10;2.10;;;;;;;22.23;50.38;101697.47;5072407;28;20028;-75
2022/08/02 06:25:53;;;;;;;5.95;2.47;;;;;;;22.47;49.88;101697.22;5073439;28;20048;-72
2022/08/02 06:28:19;;;;;;;4.97;2.40;;;;;;;22.64;49.27;101688.63;5072179;28;20059;-73
2022/08/02 06:30:44;;;;;;;5.38;2.80;;;;;;;22.80;49.05;101690.78;5073270;28;20276;-70
2022/08/02 06:33:16;;;;;;;6.30;2.38;;;;;;;22.94;48.46;101691.34;5073413;28;20480;-76
2022/08/02 06:35:50;;;;;;;4.82;2.33;;;;;;;23.03;48.21;101684.38;5073016;28;20361;-76
2022/08/02 06:38:48;;;;;;;4.85;2.50;;;;;;;23.11;48.37;101685.41;5073484;28;20028;-74
2022/08/02 06:41:17;;;;;;;4.18;2.25;;;;;;;23.21;48.27;101687.25;5071623;28;20119;-74
2022/08/02 06:43:57;;;;;;;4.97;2.63;;;;;;;23.32;47.92;101687.13;5072213;28;20039;-69
2022/08/02 06:46:23;;;;;;;6.57;2.50;;;;;;;23.38;47.89;101683.06;5072899;28;20467;-69
2022/08/02 06:48:48;;;;;;;4.57;2.27;;;;;;;23.41;47.73;101680.97;5073129;28;20032;-71
2022/08/02 06:51:13;;;;;;;4.43;2.70;;;;;;;23.43;47.69;101676.38;5071972;28;20295;-72
2022/08/02 06:53:48;;;;;;;4.88;2.63;;;;;;;23.47;47.70;101679.56;5072926;28;20020;-70
2022/08/02 06:56:14;;;;;;;6.55;2.28;;;;;;;23.53;47.91;101671.88;5071794;28;20024;-67
2022/08/02 06:58:39;;;;;;;4.93;2.42;;;;;;;23.63;47.87;101679.00;5072691;28;20457;-67
2022/08/02 07:01:06;;;;;;;6.05;2.38;;;;;;;23.70;47.32;101680.97;5072721;28;20104;-67
2022/08/02 07:03:38;;;;;;;5.85;3.55;;;;;;;23.70;48.67;101673.00;5072138;28;20071;-68
2022/08/02 07:06:16;;;;;;;5.78;3.17;;;;;;;23.72;48.11;101676.34;5072423;28;20052;-67
2022/08/02 07:08:41;;;;;;;6.30;2.88;;;;;;;23.78;47.68;101682.91;5072707;28;20111;-67
2022/08/02 07:11:08;;;;;;;7.45;2.65;;;;;;;23.84;47.52;101681.53;5071677;28;20109;-71
2022/08/02 07:13:36;;;;;;;6.78;3.28;;;;;;;23.88;48.17;101680.28;5072855;28;20025;-71
2022/08/02 07:16:03;;;;;;;5.97;3.35;;;;;;;23.86;48.24;101687.53;5072189;28;20037;-73
2022/08/02 07:18:28;;;;;;;6.00;3.80;;;;;;;23.79;49.11;101692.56;5072546;28;20071;-77
2022/08/02 07:20:54;;;;;;;6.18;3.50;;;;;;;23.72;49.40;101684.31;5072714;28;20488;-80
2022/08/02 07:23:19;;;;;;;9.30;3.80;;;;;;;23.67;49.38;101675.06;5072355;28;20487;-78
2022/08/02 07:25:45;;;;;;;6.93;3.40;;;;;;;23.70;49.51;101667.66;5071826;28;20274;-81
2022/08/02 07:28:11;;;;;;;8.60;3.60;;;;;;;23.73;49.10;101672.72;5072539;28;20020;-71
2022/08/02 07:30:37;;;;;;;6.18;3.60;;;;;;;23.73;48.85;101669.19;5072539;28;20027;-70
2022/08/02 07:33:03;;;;;;;5.53;3.38;;;;;;;23.73;49.02;101669.19;5071842;28;20025;-70
2022/08/02 07:35:29;;;;;;;6.18;3.47;;;;;;;23.74;49.10;101668.22;5076483;28;20388;-69
2022/08/02 07:37:54;;;;;;;6.80;3.53;;;;;;;23.77;49.49;101673.25;5076451;28;20039;-71
2022/08/02 07:40:20;;;;;;;5.07;3.03;;;;;;;23.80;49.01;101674.78;5075408;28;20029;-74
2022/08/02 07:42:48;;;;;;;6.15;3.38;;;;;;;23.81;49.32;101661.31;5076480;28;20285;-66
2022/08/02 07:45:13;;;;;;;5.45;3.05;;;;;;;23.82;49.79;101660.34;5076129;28;20023;-69
2022/08/02 07:47:40;;;;;;;6.33;3.80;;;;;;;23.82;49.73;101664.84;5075658;28;20021;-69
2022/08/02 07:50:06;;;;;;;6.25;3.42;;;;;;;23.73;50.71;101664.72;5075913;28;20290;-69
2022/08/02 07:52:31;;;;;;;6.85;3.30;;;;;;;23.72;50.74;101667.53;5075403;28;20025;-69
2022/08/02 07:54:57;;;;;;;6.35;3.20;;;;;;;23.68;50.39;101676.75;5075814;28;20111;-72
2022/08/02 07:57:28;;;;;;;6.45;3.00;;;;;;;23.57;50.66;101676.91;5076355;28;20071;-78
2022/08/02 07:59:53;;;;;;;6.43;2.88;;;;;;;23.51;51.34;101670.31;5075274;28;20440;-74
2022/08/02 08:02:18;;;;;;;5.32;3.22;;;;;;;23.50;51.23;101674.81;5075765;28;20116;-71
2022/08/02 08:04:44;;;;;;;5.03;2.70;;;;;;;23.47;51.14;101677.75;5076142;28;20037;-71
2022/08/02 08:07:10;;;;;;;5.70;2.80;;;;;;;23.44;51.28;101664.72;5074878;28;20273;-73
2022/08/02 08:09:44;;;;;;;4.70;2.47;;;;;;;23.45;51.32;101669.06;5076700;28;20096;-71
2022/08/02 08:12:10;;;;;;;5.05;2.50;;;;;;;23.47;50.99;101671.59;5075767;28;20031;-71
2022/08/02 08:14:37;;;;;;;4.85;2.58;;;;;;;23.44;51.26;101670.03;5075362;28;20036;-70
2022/08/02 08:17:03;;;;;;;4.65;2.85;;;;;;;23.44;51.51;101667.38;5075284;28;20067;-73
2022/08/02 08:19:29;;;;;;;5.85;2.45;;;;;;;23.49;51.47;101669.63;5076814;28;20032;-73
2022/08/02 08:21:54;;;;;;;6.32;2.58;;;;;;;23.53;50.79;101665.72;5075182;28;20078;-68
2022/08/02 08:24:19;;;;;;;4.17;1.93;;;;;;;23.58;50.77;101674.09;5075449;28;20021;-68
2022/08/02 08:26:44;;;;;;;5.70;1.97;;;;;;;23.65;50.66;101677.88;5075788;28;20826;-72
2022/08/02 08:29:10;;;;;;;4.28;2.13;;;;;;;23.72;50.50;101665.69;5074386;28;20304;-69
2022/08/02 08:31:35;;;;;;;4.80;1.83;;;;;;;23.83;49.56;101651.44;5075569;28;20222;-69
2022/08/02 08:34:03;;;;;;;3.70;1.70;;;;;;;23.89;48.82;101653.53;5075087;28;20389;-68
2022/08/02 08:36:29;;;;;;;4.05;1.55;;;;;;;23.96;48.71;101652.91;5074552;28;20269;-68
2022/08/02 08:38:54;;;;;;;3.00;1.60;;;;;;;24.00;48.53;101647.16;5075570;28;20028;-69
2022/08/02 08:41:20;;;;;;;4.00;1.70;;;;;;;24.07;48.35;101652.78;5075211;28;20051;-69
2022/08/02 08:43:46;;;;;;;3.22;1.58;;;;;;;24.11;48.60;101650.66;5074522;28;20028;-69
2022/08/02 08:46:24;;;;;;;4.70;1.80;;;;;;;24.14;48.47;101661.03;5074110;28;20021;-69
2022/08/02 08:48:52;;;;;;;3.05;1.50;;;;;;;24.14;46.98;101664.50;5074414;28;20025;-70
2022/08/02 08:51:20;;;;;;;2.53;1.30;;;;;;;24.15;46.59;101668.00;5075053;28;20029;-68
2022/08/02 08:53:47;;;;;;;4.68;1.80;;;;;;;24.17;46.66;101674.88;5075253;28;20033;-69
2022/08/02 08:56:14;;;;;;;3.58;1.60;;;;;;;24.18;46.09;101668.56;5074130;28;20047;-69
2022/08/02 08:58:41;;;;;;;3.97;1.60;;;;;;;24.19;46.67;101662.25;5075002;28;20480;-68
2022/08/02 09:01:07;;;;;;;3.65;1.75;;;;;;;24.20;47.18;101657.78;5074618;28;20025;-68
2022/08/02 09:03:32;;;;;;;4.38;1.58;;;;;;;24.08;47.02;101657.09;5073962;28;20078;-72
2022/08/02 09:05:57;;;;;;;4.80;1.73;;;;;;;24.01;47.42;101650.69;5074744;28;20024;-71
2022/08/02 09:08:23;;;;;;;4.68;1.48;;;;;;;23.99;48.10;101653.50;5074680;28;20070;-73
2022/08/02 09:10:49;;;;;;;3.85;1.60;;;;;;;23.98;48.14;101661.63;5074102;28;20123;-73
2022/08/02 09:13:21;;;;;;;3.90;1.35;;;;;;;23.98;47.69;101661.63;5074511;28;20147;-73
2022/08/02 09:15:55;;;;;;;3.30;1.60;;;;;;;23.99;47.69;101660.63;5074530;28;20048;-75
2022/08/02 09:18:31;;;;;;;3.58;1.50;;;;;;;24.03;47.66;101654.03;5077354;28;20084;-75
2022/08/02 09:21:02;;;;;;;3.88;1.30;;;;;;;24.06;47.48;101646.59;5074925;28;20033;-71
2022/08/02 09:23:57;;;;;;;4.30;1.40;;;;;;;24.09;47.50;101648.97;5074633;28;20515;-71
2022/08/02 09:26:23;;;;;;;3.47;1.27;;;;;;;24.11;47.38;101643.50;5053186;28;20086;-71
2022/08/02 09:28:57;;;;;;;3.92;1.52;;;;;;;24.17;47.49;101648.25;5074621;28;20058;-72
2022/08/02 09:31:23;;;;;;;6.88;1.38;;;;;;;24.21;46.97;101652.31;5073747;28;20108;-70
2022/08/02 09:33:59;;;;;;;2.78;1.38;;;;;;;24.26;47.06;101649.22;5074513;28;20221;-76
2022/08/02 09:36:25;;;;;;;3.72;1.35;;;;;;;24.32;46.70;101655.75;5074183;28;20028;-69
2022/08/02 09:38:55;;;;;;;3.88;1.98;;;;;;;24.34;46.55;101651.97;5073468;28;20067;-70
2022/08/02 09:41:26;;;;;;;2.85;1.48;;;;;;;24.39;46.42;101643.53;5074264;28;20025;-72
2022/08/02 09:43:52;;;;;;;3.08;1.25;;;;;;;24.43;46.21;101653.78;5074287;28;20024;-74
2022/08/02 09:46:20;;;;;;;5.40;1.27;;;;;;;24.44;46.00;101650.09;5072987;28;20107;-70
2022/08/02 09:48:47;;;;;;;4.28;1.42;;;;;;;24.47;46.41;101648.13;5074031;28;20029;-77
2022/08/02 09:51:38;;;;;;;8.05;1.58;;;;;;;24.51;46.42;101652.19;5073691;28;20027;-72
2022/08/02 09:54:12;;;;;;;4.07;1.40;;;;;;;24.55;46.01;101651.72;5062018;28;20037;-78
2022/08/02 09:56:40;;;;;;;3.60;1.33;;;;;;;24.56;45.80;101652.56;5073903;28;20361;-69
2022/08/02 09:59:07;;;;;;;3.75;1.30;;;;;;;24.59;46.03;101646.97;5072775;28;20117;-74
2022/08/02 10:01:33;;;;;;;3.03;1.38;;;;;;;24.62;45.30;101658.19;5073797;28;20024;-71
2022/08/02 10:04:01;;;;;;;6.53;1.50;;;;;;;24.65;45.41;101654.38;5073114;28;20445;-70
2022/08/02 10:06:27;;;;;;;3.60;1.30;;;;;;;24.67;46.02;101651.56;5073207;28;20036;-70
2022/08/02 10:08:54;;;;;;;5.40;1.30;;;;;;;24.70;45.43;101654.75;5073832;28;20409;-71
2022/08/02 10:11:20;;;;;;;2.80;1.13;;;;;;;24.73;45.45;101645.63;5073404;28;20040;-73
2022/08/02 10:13:47;;;;;;;4.10;1.35;;;;;;;24.76;45.23;101648.00;5072663;28;20383;-71
2022/08/02 10:16:15;;;;;;;2.63;1.27;;;;;;;24.78;45.24;101641.56;5072985;28;20454;-73
2022/08/02 10:18:40;;;;;;;2.45;1.08;;;;;;;24.80;45.49;101639.56;5073372;28;20032;-74
2022/08/02 10:21:10;;;;;;;3.70;1.30;;;;;;;24.82;45.51;101644.75;5072717;28;20020;-72
2022/08/02 10:23:38;;;;;;;3.20;1.38;;;;;;;24.81;45.33;101657.22;5073454;28;20029;-72
2022/08/02 10:26:05;;;;;;;2.65;1.02;;;;;;;24.81;44.98;101653.72;5072919;28;20415;-70
2022/08/02 10:28:31;;;;;;;5.20;1.33;;;;;;;24.79;45.16;101637.88;5072403;28;20027;-70
2022/08/02 10:31:00;;;;;;;2.38;1.20;;;;;;;24.79;45.09;101632.56;5072758;28;20016;-70
2022/08/02 10:33:27;;;;;;;3.00;1.15;;;;;;;24.76;45.13;101627.50;5073192;28;20111;-71
2022/08/02 10:35:56;;;;;;;2.25;1.13;;;;;;;24.77;45.43;101631.03;5072526;28;20112;-70
2022/08/02 10:38:25;;;;;;;2.92;1.40;;;;;;;24.75;45.37;101630.31;5073156;28;20428;-70
2022/08/02 10:40:53;;;;;;;1.98;1.10;;;;;;;24.75;45.23;101630.31;5073190;28;20028;-71
2022/08/02 10:43:30;;;;;;;2.72;1.20;;;;;;;24.73;45.15;101635.81;5072155;28;20039;-68
2022/08/02 10:46:37;;;;;;;4.10;1.23;;;;;;;24.72;45.15;101630.63;5072748;28;20036;-68
2022/08/02 10:49:13;;;;;;;2.15;1.02;;;;;;;24.68;45.31;101634.59;5071146;28;20071;-68
2022/08/02 10:52:00;;;;;;;2.67;1.10;;;;;;;24.65;45.39;101635.72;5073028;28;20103;-69
2022/08/02 10:54:30;;;;;;;2.47;1.20;;;;;;;24.63;45.59;101630.53;5072780;28;20025;-73
2022/08/02 10:56:57;;;;;;;3.33;1.15;;;;;;;24.62;45.18;101631.53;5072086;28;20119;-69
2022/08/02 10:59:27;;;;;;;3.70;1.30;;;;;;;24.59;45.72;101634.50;5072862;28;20016;-69
2022/08/02 11:02:00;;;;;;;3.40;1.30;;;;;;;24.57;45.84;101622.31;5072877;28;20101;-69
2022/08/02 11:04:28;;;;;;;3.08;1.20;;;;;;;24.55;45.35;101621.59;5072055;28;20039;-69
2022/08/02 11:07:09;;;;;;;3.05;1.13;;;;;;;24.54;45.29;101618.06;5072901;28;20028;-69
2022/08/02 11:09:35;;;;;;;2.47;1.20;;;;;;;24.54;45.67;101625.25;5071682;28;20028;-69
2022/08/02 11:12:02;;;;;;;3.72;1.13;;;;;;;24.54;45.51;101631.41;5072206;28;20020;-75
2022/08/02 11:14:28;;;;;;;2.65;1.25;;;;;;;24.58;45.29;101624.00;5072621;28;20024;-71
2022/08/02 11:16:56;;;;;;;6.50;1.50;;;;;;;24.64;45.38;101626.03;5071649;28;20048;-70
2022/08/02 11:19:25;;;;;;;2.90;1.15;;;;;;;24.69;45.04;101625.59;5072782;28;20078;-71
2022/08/02 11:22:04;;;;;;;2.72;1.10;;;;;;;24.71;45.16;101626.31;5072842;28;20042;-72
2022/08/02 11:24:37;;;;;;;5.90;1.73;;;;;;;24.74;44.94;101624.16;5071825;28;20059;-70
2022/08/02 11:27:05;;;;;;;4.50;1.20;;;;;;;24.79;45.00;101618.38;5072035;28;20052;-74
2022/08/02 11:29:32;;;;;;;3.33;1.25;;;;;;;24.81;44.89;101617.22;5072475;28;20099;-70
2022/08/02 11:31:58;;;;;;;2.72;1.10;;;;;;;24.85;45.09;101623.13;5071431;28;20021;-71
2022/08/02 11:34:27;;;;;;;2.83;0.93;;;;;;;24.89;44.69;101618.31;5072729;28;20032;-69
2022/08/02 11:36:52;;;;;;;5.05;1.10;;;;;;;24.90;44.71;101620.84;5072503;28;20075;-75